Etusivu
METAR-TAF:

METAR-TAF

Lentoasemat :

Rome State Airport

Rome, Oregon, Yhdysvallat

Leveyspiiri: 42-35-26N, Pituuspiiri: 117-51-52W, korkeus merenpinnasta: 1234 m

Tämänhetkinen sää

Tämä raportti tehtiin 25 minuuttia sitten, kello 19.52 UTC
Tuuli 7 kn pohjoisesta puuskistuen 15 kn:hen
Lämpötila 28°C
Kosteus 14%
Ilmanpaine 1019 hPa

METAR: KREO 141952Z AUTO 36007G15KT 28/M02 A3010 RMK AO1 SLP158 T02781017

Aika: 14:17 (20:17 UTC)


TAF: puuttuu

Säähavainnot ja -ennusteet yli 4000 lentoasemalta (METAR- ja TAF-raportit).

Käytössä olevat sääasemat on merkitty karttaan keltaisilla ja punaisilla pisteillä.

Aseta hiiri pisteen päälle nähdäksesi sääaseman nimen.

Klikkaa sitten nähdäksesi säähavainnot ja -ennusteet.

Kartan vaihtaminen: klikkaa mustalla rastilla varustettuja vihreitä pisteitä, niin voit zoomata sisään; viivalla varustettua vihreää pistettä, niin voit zoomata ulos tai vihreitä nuolia, niin pääset viereisille kartoille.


METAR-TAF: